sensor_id;sensor_type;location;lat;lon;timestamp;P1;durP1;ratioP1;P2;durP2;ratioP2
53598;SDS011;39485;45.702;11.364;2022-12-24T00:00:00;1.15;;;1.10;;
53598;SDS011;39485;45.702;11.364;2022-12-24T00:02:26;9.43;;;2.90;;
53598;SDS011;39485;45.702;11.364;2022-12-24T00:04:52;1.55;;;1.55;;
53598;SDS011;39485;45.702;11.364;2022-12-24T00:07:18;1.05;;;1.05;;
53598;SDS011;39485;45.702;11.364;2022-12-24T00:09:43;2.45;;;2.25;;
53598;SDS011;39485;45.702;11.364;2022-12-24T00:12:09;2.55;;;2.40;;
53598;SDS011;39485;45.702;11.364;2022-12-24T00:14:35;2.63;;;2.42;;
53598;SDS011;39485;45.702;11.364;2022-12-24T00:17:00;3.88;;;1.75;;
53598;SDS011;39485;45.702;11.364;2022-12-24T00:19:26;6.07;;;4.30;;
53598;SDS011;39485;45.702;11.364;2022-12-24T00:21:52;1.45;;;1.35;;
53598;SDS011;39485;45.702;11.364;2022-12-24T00:24:17;1.80;;;1.70;;
53598;SDS011;39485;45.702;11.364;2022-12-24T00:26:43;1.10;;;1.10;;
53598;SDS011;39485;45.702;11.364;2022-12-24T00:29:09;3.03;;;2.83;;
53598;SDS011;39485;45.702;11.364;2022-12-24T00:31:36;3.00;;;2.72;;
53598;SDS011;39485;45.702;11.364;2022-12-24T00:34:01;1.75;;;1.67;;
53598;SDS011;39485;45.702;11.364;2022-12-24T00:36:27;4.18;;;3.70;;
53598;SDS011;39485;45.702;11.364;2022-12-24T00:38:53;2.22;;;1.48;;
53598;SDS011;39485;45.702;11.364;2022-12-24T00:41:18;3.03;;;2.53;;
53598;SDS011;39485;45.702;11.364;2022-12-24T00:46:18;3.33;;;2.28;;
53598;SDS011;39485;45.702;11.364;2022-12-24T00:48:44;2.67;;;2.53;;
53598;SDS011;39485;45.702;11.364;2022-12-24T00:51:10;3.92;;;2.83;;
53598;SDS011;39485;45.702;11.364;2022-12-24T00:53:35;2.47;;;2.28;;
53598;SDS011;39485;45.702;11.364;2022-12-24T00:56:01;5.32;;;1.58;;
53598;SDS011;39485;45.702;11.364;2022-12-24T00:58:27;3.47;;;2.13;;
53598;SDS011;39485;45.702;11.364;2022-12-24T01:00:54;2.63;;;2.42;;
53598;SDS011;39485;45.702;11.364;2022-12-24T01:03:19;1.70;;;1.33;;
53598;SDS011;39485;45.702;11.364;2022-12-24T01:05:45;1.88;;;1.77;;
53598;SDS011;39485;45.702;11.364;2022-12-24T01:08:12;2.90;;;2.10;;
53598;SDS011;39485;45.702;11.364;2022-12-24T01:10:38;1.73;;;1.63;;
53598;SDS011;39485;45.702;11.364;2022-12-24T01:13:03;1.38;;;1.15;;
53598;SDS011;39485;45.702;11.364;2022-12-24T01:15:29;1.73;;;1.05;;
53598;SDS011;39485;45.702;11.364;2022-12-24T01:17:55;1.83;;;1.73;;
53598;SDS011;39485;45.702;11.364;2022-12-24T01:20:22;2.67;;;0.98;;
53598;SDS011;39485;45.702;11.364;2022-12-24T01:22:48;0.95;;;0.95;;
53598;SDS011;39485;45.702;11.364;2022-12-24T01:25:13;1.13;;;1.00;;
53598;SDS011;39485;45.702;11.364;2022-12-24T01:27:39;0.98;;;0.95;;
53598;SDS011;39485;45.702;11.364;2022-12-24T01:30:05;0.88;;;0.88;;
53598;SDS011;39485;45.702;11.364;2022-12-24T01:32:32;0.73;;;0.73;;
53598;SDS011;39485;45.702;11.364;2022-12-24T01:34:59;1.98;;;1.88;;
53598;SDS011;39485;45.702;11.364;2022-12-24T01:37:24;1.40;;;1.35;;
53598;SDS011;39485;45.702;11.364;2022-12-24T01:39:50;1.50;;;1.40;;
53598;SDS011;39485;45.702;11.364;2022-12-24T01:42:36;2.05;;;1.88;;
53598;SDS011;39485;45.702;11.364;2022-12-24T01:48:04;3.07;;;2.87;;
53598;SDS011;39485;45.702;11.364;2022-12-24T01:50:45;2.03;;;1.83;;
53598;SDS011;39485;45.702;11.364;2022-12-24T01:53:13;2.93;;;2.17;;
53598;SDS011;39485;45.702;11.364;2022-12-24T01:55:40;7.07;;;2.42;;
53598;SDS011;39485;45.702;11.364;2022-12-24T01:58:07;2.80;;;2.53;;
53598;SDS011;39485;45.702;11.364;2022-12-24T02:00:34;2.77;;;2.57;;
53598;SDS011;39485;45.702;11.364;2022-12-24T02:03:00;4.70;;;1.87;;
53598;SDS011;39485;45.702;11.364;2022-12-24T02:05:37;1.70;;;0.97;;
53598;SDS011;39485;45.702;11.364;2022-12-24T02:08:06;1.37;;;1.27;;
53598;SDS011;39485;45.702;11.364;2022-12-24T02:10:32;0.80;;;0.80;;
53598;SDS011;39485;45.702;11.364;2022-12-24T02:12:58;1.40;;;1.40;;
53598;SDS011;39485;45.702;11.364;2022-12-24T02:15:25;1.13;;;1.03;;
53598;SDS011;39485;45.702;11.364;2022-12-24T02:18:18;4.00;;;1.73;;
53598;SDS011;39485;45.702;11.364;2022-12-24T02:23:51;2.33;;;0.80;;
53598;SDS011;39485;45.702;11.364;2022-12-24T02:26:53;1.60;;;1.50;;
53598;SDS011;39485;45.702;11.364;2022-12-24T02:31:59;1.33;;;1.20;;
53598;SDS011;39485;45.702;11.364;2022-12-24T02:34:38;1.13;;;1.13;;
53598;SDS011;39485;45.702;11.364;2022-12-24T02:42:25;5.30;;;2.00;;
53598;SDS011;39485;45.702;11.364;2022-12-24T02:44:56;1.30;;;1.30;;
53598;SDS011;39485;45.702;11.364;2022-12-24T02:47:26;2.00;;;1.60;;
53598;SDS011;39485;45.702;11.364;2022-12-24T02:49:54;3.03;;;2.73;;
53598;SDS011;39485;45.702;11.364;2022-12-24T02:52:29;1.50;;;1.40;;
53598;SDS011;39485;45.702;11.364;2022-12-24T02:55:08;0.63;;;0.63;;
53598;SDS011;39485;45.702;11.364;2022-12-24T02:57:43;1.45;;;1.35;;
53598;SDS011;39485;45.702;11.364;2022-12-24T03:00:39;2.30;;;2.10;;
53598;SDS011;39485;45.702;11.364;2022-12-24T03:05:52;2.63;;;1.97;;
53598;SDS011;39485;45.702;11.364;2022-12-24T03:11:19;1.70;;;1.70;;
53598;SDS011;39485;45.702;11.364;2022-12-24T03:13:45;2.30;;;2.07;;
53598;SDS011;39485;45.702;11.364;2022-12-24T03:16:20;2.33;;;2.03;;
53598;SDS011;39485;45.702;11.364;2022-12-24T03:18:49;3.20;;;3.00;;
53598;SDS011;39485;45.702;11.364;2022-12-24T03:21:30;3.87;;;2.37;;
53598;SDS011;39485;45.702;11.364;2022-12-24T03:23:59;8.03;;;4.83;;
53598;SDS011;39485;45.702;11.364;2022-12-24T03:26:26;2.93;;;1.70;;
53598;SDS011;39485;45.702;11.364;2022-12-24T03:28:54;2.10;;;1.90;;
53598;SDS011;39485;45.702;11.364;2022-12-24T03:31:20;1.23;;;1.23;;
53598;SDS011;39485;45.702;11.364;2022-12-24T03:33:46;3.40;;;1.73;;
53598;SDS011;39485;45.702;11.364;2022-12-24T03:36:13;0.93;;;0.90;;
53598;SDS011;39485;45.702;11.364;2022-12-24T03:38:39;2.20;;;2.07;;
53598;SDS011;39485;45.702;11.364;2022-12-24T03:41:05;2.73;;;1.73;;
53598;SDS011;39485;45.702;11.364;2022-12-24T03:43:31;1.17;;;1.17;;
53598;SDS011;39485;45.702;11.364;2022-12-24T03:45:57;1.37;;;1.23;;
53598;SDS011;39485;45.702;11.364;2022-12-24T03:48:27;1.87;;;1.77;;
53598;SDS011;39485;45.702;11.364;2022-12-24T03:50:52;6.93;;;1.27;;
53598;SDS011;39485;45.702;11.364;2022-12-24T03:53:18;0.83;;;0.73;;
53598;SDS011;39485;45.702;11.364;2022-12-24T03:55:43;1.07;;;1.07;;
53598;SDS011;39485;45.702;11.364;2022-12-24T03:58:11;2.57;;;1.83;;
53598;SDS011;39485;45.702;11.364;2022-12-24T04:00:36;3.20;;;2.30;;
53598;SDS011;39485;45.702;11.364;2022-12-24T04:03:02;1.13;;;1.10;;
53598;SDS011;39485;45.702;11.364;2022-12-24T04:05:28;4.83;;;2.10;;
53598;SDS011;39485;45.702;11.364;2022-12-24T04:07:53;3.70;;;2.10;;
53598;SDS011;39485;45.702;11.364;2022-12-24T04:10:19;1.67;;;1.57;;
53598;SDS011;39485;45.702;11.364;2022-12-24T04:12:45;1.03;;;1.03;;
53598;SDS011;39485;45.702;11.364;2022-12-24T04:15:10;0.47;;;0.47;;
53598;SDS011;39485;45.702;11.364;2022-12-24T04:17:36;1.90;;;1.80;;
53598;SDS011;39485;45.702;11.364;2022-12-24T04:20:02;1.43;;;1.30;;
53598;SDS011;39485;45.702;11.364;2022-12-24T04:22:28;2.17;;;2.07;;
53598;SDS011;39485;45.702;11.364;2022-12-24T04:24:54;5.93;;;2.30;;
53598;SDS011;39485;45.702;11.364;2022-12-24T04:27:19;4.10;;;2.90;;
53598;SDS011;39485;45.702;11.364;2022-12-24T04:29:45;0.90;;;0.90;;
53598;SDS011;39485;45.702;11.364;2022-12-24T04:32:12;1.30;;;1.20;;
53598;SDS011;39485;45.702;11.364;2022-12-24T04:34:37;5.73;;;1.77;;
53598;SDS011;39485;45.702;11.364;2022-12-24T04:37:03;2.17;;;2.07;;
53598;SDS011;39485;45.702;11.364;2022-12-24T04:39:29;2.13;;;2.00;;
53598;SDS011;39485;45.702;11.364;2022-12-24T04:41:55;1.00;;;1.00;;
53598;SDS011;39485;45.702;11.364;2022-12-24T04:44:20;1.73;;;1.63;;
53598;SDS011;39485;45.702;11.364;2022-12-24T04:46:46;4.87;;;2.27;;
53598;SDS011;39485;45.702;11.364;2022-12-24T04:49:12;5.10;;;2.77;;
53598;SDS011;39485;45.702;11.364;2022-12-24T04:51:38;4.47;;;1.77;;
53598;SDS011;39485;45.702;11.364;2022-12-24T04:54:03;4.90;;;2.77;;
53598;SDS011;39485;45.702;11.364;2022-12-24T04:56:30;6.13;;;3.13;;
53598;SDS011;39485;45.702;11.364;2022-12-24T04:58:57;8.20;;;1.83;;
53598;SDS011;39485;45.702;11.364;2022-12-24T05:01:28;2.30;;;2.00;;
53598;SDS011;39485;45.702;11.364;2022-12-24T05:03:55;2.23;;;1.73;;
53598;SDS011;39485;45.702;11.364;2022-12-24T05:06:22;2.13;;;2.03;;
53598;SDS011;39485;45.702;11.364;2022-12-24T05:08:52;5.70;;;1.13;;
53598;SDS011;39485;45.702;11.364;2022-12-24T05:11:18;1.23;;;1.17;;
53598;SDS011;39485;45.702;11.364;2022-12-24T05:13:44;2.67;;;1.53;;
53598;SDS011;39485;45.702;11.364;2022-12-24T05:16:10;1.77;;;1.67;;
53598;SDS011;39485;45.702;11.364;2022-12-24T05:18:54;1.03;;;0.93;;
53598;SDS011;39485;45.702;11.364;2022-12-24T05:21:44;0.77;;;0.77;;
53598;SDS011;39485;45.702;11.364;2022-12-24T05:24:29;0.47;;;0.47;;
53598;SDS011;39485;45.702;11.364;2022-12-24T05:27:13;1.57;;;0.80;;
53598;SDS011;39485;45.702;11.364;2022-12-24T05:29:39;3.13;;;1.37;;
53598;SDS011;39485;45.702;11.364;2022-12-24T05:32:05;0.80;;;0.60;;
53598;SDS011;39485;45.702;11.364;2022-12-24T05:34:30;0.80;;;0.77;;
53598;SDS011;39485;45.702;11.364;2022-12-24T05:36:56;0.87;;;0.87;;
53598;SDS011;39485;45.702;11.364;2022-12-24T05:39:22;1.23;;;0.40;;
53598;SDS011;39485;45.702;11.364;2022-12-24T05:41:47;1.27;;;1.20;;
53598;SDS011;39485;45.702;11.364;2022-12-24T05:44:13;0.60;;;0.60;;
53598;SDS011;39485;45.702;11.364;2022-12-24T05:46:40;0.47;;;0.47;;
53598;SDS011;39485;45.702;11.364;2022-12-24T05:49:06;0.40;;;0.40;;
53598;SDS011;39485;45.702;11.364;2022-12-24T05:51:31;1.27;;;1.17;;
53598;SDS011;39485;45.702;11.364;2022-12-24T05:53:57;1.43;;;1.37;;
53598;SDS011;39485;45.702;11.364;2022-12-24T05:56:23;0.53;;;0.53;;
53598;SDS011;39485;45.702;11.364;2022-12-24T05:58:50;0.90;;;0.90;;
53598;SDS011;39485;45.702;11.364;2022-12-24T06:01:17;0.60;;;0.60;;
53598;SDS011;39485;45.702;11.364;2022-12-24T06:03:44;3.10;;;1.60;;
53598;SDS011;39485;45.702;11.364;2022-12-24T06:06:11;7.77;;;2.60;;
53598;SDS011;39485;45.702;11.364;2022-12-24T06:08:38;1.33;;;1.23;;
53598;SDS011;39485;45.702;11.364;2022-12-24T06:11:07;1.47;;;1.40;;
53598;SDS011;39485;45.702;11.364;2022-12-24T06:13:35;2.00;;;1.83;;
53598;SDS011;39485;45.702;11.364;2022-12-24T06:16:01;5.67;;;1.57;;
53598;SDS011;39485;45.702;11.364;2022-12-24T06:18:29;0.60;;;0.60;;
53598;SDS011;39485;45.702;11.364;2022-12-24T06:20:56;0.93;;;0.93;;
53598;SDS011;39485;45.702;11.364;2022-12-24T06:23:22;3.10;;;1.63;;
53598;SDS011;39485;45.702;11.364;2022-12-24T06:25:56;0.40;;;0.40;;
53598;SDS011;39485;45.702;11.364;2022-12-24T06:28:25;0.73;;;0.73;;
53598;SDS011;39485;45.702;11.364;2022-12-24T06:30:56;0.80;;;0.80;;
53598;SDS011;39485;45.702;11.364;2022-12-24T06:33:22;1.97;;;1.73;;
53598;SDS011;39485;45.702;11.364;2022-12-24T06:35:48;0.80;;;0.80;;
53598;SDS011;39485;45.702;11.364;2022-12-24T06:38:14;1.40;;;1.30;;
53598;SDS011;39485;45.702;11.364;2022-12-24T06:40:41;1.90;;;1.67;;
53598;SDS011;39485;45.702;11.364;2022-12-24T06:43:08;6.50;;;2.43;;
53598;SDS011;39485;45.702;11.364;2022-12-24T06:45:35;1.93;;;1.83;;
53598;SDS011;39485;45.702;11.364;2022-12-24T06:48:01;1.27;;;1.20;;
53598;SDS011;39485;45.702;11.364;2022-12-24T06:50:26;1.83;;;1.73;;
53598;SDS011;39485;45.702;11.364;2022-12-24T06:52:52;1.77;;;1.07;;
53598;SDS011;39485;45.702;11.364;2022-12-24T06:55:21;2.77;;;2.10;;
53598;SDS011;39485;45.702;11.364;2022-12-24T06:57:47;0.60;;;0.60;;
53598;SDS011;39485;45.702;11.364;2022-12-24T07:00:12;1.53;;;1.43;;
53598;SDS011;39485;45.702;11.364;2022-12-24T07:02:42;1.30;;;1.23;;
53598;SDS011;39485;45.702;11.364;2022-12-24T07:05:12;1.60;;;1.50;;
53598;SDS011;39485;45.702;11.364;2022-12-24T07:07:39;0.37;;;0.37;;
53598;SDS011;39485;45.702;11.364;2022-12-24T07:10:07;0.80;;;0.80;;
53598;SDS011;39485;45.702;11.364;2022-12-24T07:12:35;2.00;;;1.77;;
53598;SDS011;39485;45.702;11.364;2022-12-24T07:15:00;0.73;;;0.73;;
53598;SDS011;39485;45.702;11.364;2022-12-24T07:17:26;2.73;;;2.10;;
53598;SDS011;39485;45.702;11.364;2022-12-24T07:19:52;1.23;;;1.23;;
53598;SDS011;39485;45.702;11.364;2022-12-24T07:22:18;1.43;;;1.33;;
53598;SDS011;39485;45.702;11.364;2022-12-24T07:24:43;1.00;;;1.00;;
53598;SDS011;39485;45.702;11.364;2022-12-24T07:27:09;1.23;;;1.13;;
53598;SDS011;39485;45.702;11.364;2022-12-24T07:29:35;0.90;;;0.90;;
53598;SDS011;39485;45.702;11.364;2022-12-24T07:32:00;1.70;;;1.60;;
53598;SDS011;39485;45.702;11.364;2022-12-24T07:34:26;0.97;;;0.97;;
53598;SDS011;39485;45.702;11.364;2022-12-24T07:36:52;0.83;;;0.83;;
53598;SDS011;39485;45.702;11.364;2022-12-24T07:39:18;1.73;;;1.63;;
53598;SDS011;39485;45.702;11.364;2022-12-24T07:41:43;2.03;;;1.35;;
53598;SDS011;39485;45.702;11.364;2022-12-24T07:44:14;0.50;;;0.50;;
53598;SDS011;39485;45.702;11.364;2022-12-24T07:46:40;2.33;;;1.17;;
53598;SDS011;39485;45.702;11.364;2022-12-24T07:49:07;1.55;;;1.48;;
53598;SDS011;39485;45.702;11.364;2022-12-24T07:51:32;1.23;;;1.23;;
53598;SDS011;39485;45.702;11.364;2022-12-24T07:53:58;3.63;;;1.87;;
53598;SDS011;39485;45.702;11.364;2022-12-24T07:56:24;3.07;;;1.60;;
53598;SDS011;39485;45.702;11.364;2022-12-24T07:58:50;2.20;;;1.27;;
53598;SDS011;39485;45.702;11.364;2022-12-24T08:01:16;2.67;;;1.53;;
53598;SDS011;39485;45.702;11.364;2022-12-24T08:03:43;1.40;;;1.03;;
53598;SDS011;39485;45.702;11.364;2022-12-24T08:06:09;0.77;;;0.77;;
53598;SDS011;39485;45.702;11.364;2022-12-24T08:08:36;7.22;;;2.00;;
53598;SDS011;39485;45.702;11.364;2022-12-24T08:11:03;0.63;;;0.63;;
53598;SDS011;39485;45.702;11.364;2022-12-24T08:13:30;1.88;;;0.73;;
53598;SDS011;39485;45.702;11.364;2022-12-24T08:15:57;1.83;;;1.15;;
53598;SDS011;39485;45.702;11.364;2022-12-24T08:18:23;0.70;;;0.70;;
53598;SDS011;39485;45.702;11.364;2022-12-24T08:20:49;1.20;;;1.20;;
53598;SDS011;39485;45.702;11.364;2022-12-24T08:23:15;2.20;;;1.08;;
53598;SDS011;39485;45.702;11.364;2022-12-24T08:25:42;1.67;;;1.58;;
53598;SDS011;39485;45.702;11.364;2022-12-24T08:28:10;0.52;;;0.52;;
53598;SDS011;39485;45.702;11.364;2022-12-24T08:30:36;0.93;;;0.93;;
53598;SDS011;39485;45.702;11.364;2022-12-24T08:33:02;0.50;;;0.50;;
53598;SDS011;39485;45.702;11.364;2022-12-24T08:35:32;1.25;;;1.15;;
53598;SDS011;39485;45.702;11.364;2022-12-24T08:38:01;0.90;;;0.90;;
53598;SDS011;39485;45.702;11.364;2022-12-24T08:40:27;1.42;;;1.33;;
53598;SDS011;39485;45.702;11.364;2022-12-24T08:42:57;0.65;;;0.65;;
53598;SDS011;39485;45.702;11.364;2022-12-24T08:45:36;0.85;;;0.85;;
53598;SDS011;39485;45.702;11.364;2022-12-24T08:48:06;1.85;;;1.75;;
53598;SDS011;39485;45.702;11.364;2022-12-24T08:50:38;1.00;;;1.00;;
53598;SDS011;39485;45.702;11.364;2022-12-24T08:53:05;1.48;;;0.73;;
53598;SDS011;39485;45.702;11.364;2022-12-24T08:55:33;0.57;;;0.57;;
53598;SDS011;39485;45.702;11.364;2022-12-24T08:57:59;0.52;;;0.52;;
53598;SDS011;39485;45.702;11.364;2022-12-24T09:00:27;0.98;;;0.77;;
53598;SDS011;39485;45.702;11.364;2022-12-24T09:02:59;2.15;;;2.05;;
53598;SDS011;39485;45.702;11.364;2022-12-24T09:05:26;2.92;;;2.63;;
53598;SDS011;39485;45.702;11.364;2022-12-24T09:07:53;1.25;;;1.15;;
53598;SDS011;39485;45.702;11.364;2022-12-24T09:10:21;4.25;;;2.35;;
53598;SDS011;39485;45.702;11.364;2022-12-24T09:12:47;1.15;;;1.05;;
53598;SDS011;39485;45.702;11.364;2022-12-24T09:15:15;2.10;;;2.00;;
53598;SDS011;39485;45.702;11.364;2022-12-24T09:17:41;2.35;;;2.20;;
53598;SDS011;39485;45.702;11.364;2022-12-24T09:20:07;2.13;;;2.03;;
53598;SDS011;39485;45.702;11.364;2022-12-24T09:22:36;7.97;;;4.05;;
53598;SDS011;39485;45.702;11.364;2022-12-24T09:25:03;3.67;;;2.92;;
53598;SDS011;39485;45.702;11.364;2022-12-24T09:27:34;3.85;;;2.58;;
53598;SDS011;39485;45.702;11.364;2022-12-24T09:30:03;1.80;;;1.70;;
53598;SDS011;39485;45.702;11.364;2022-12-24T09:32:30;1.95;;;1.52;;
53598;SDS011;39485;45.702;11.364;2022-12-24T09:34:56;2.17;;;2.08;;
53598;SDS011;39485;45.702;11.364;2022-12-24T09:37:22;2.75;;;2.47;;
53598;SDS011;39485;45.702;11.364;2022-12-24T09:39:48;3.63;;;3.22;;
53598;SDS011;39485;45.702;11.364;2022-12-24T09:47:54;1.42;;;1.33;;
53598;SDS011;39485;45.702;11.364;2022-12-24T09:53:11;1.65;;;1.50;;
53598;SDS011;39485;45.702;11.364;2022-12-24T09:55:43;0.90;;;0.88;;
53598;SDS011;39485;45.702;11.364;2022-12-24T09:58:19;0.98;;;0.95;;
53598;SDS011;39485;45.702;11.364;2022-12-24T10:00:54;2.75;;;1.42;;
53598;SDS011;39485;45.702;11.364;2022-12-24T10:03:21;0.90;;;0.90;;
53598;SDS011;39485;45.702;11.364;2022-12-24T10:05:59;3.88;;;1.02;;
53598;SDS011;39485;45.702;11.364;2022-12-24T10:08:52;0.57;;;0.57;;
53598;SDS011;39485;45.702;11.364;2022-12-24T10:25:28;2.10;;;1.15;;
53598;SDS011;39485;45.702;11.364;2022-12-24T10:27:54;5.70;;;1.67;;
53598;SDS011;39485;45.702;11.364;2022-12-24T10:30:24;1.67;;;1.20;;
53598;SDS011;39485;45.702;11.364;2022-12-24T10:32:50;3.97;;;1.35;;
53598;SDS011;39485;45.702;11.364;2022-12-24T10:35:19;1.48;;;1.00;;
53598;SDS011;39485;45.702;11.364;2022-12-24T10:37:50;4.65;;;1.67;;
53598;SDS011;39485;45.702;11.364;2022-12-24T10:40:31;2.80;;;1.98;;
53598;SDS011;39485;45.702;11.364;2022-12-24T10:43:12;1.35;;;1.33;;
53598;SDS011;39485;45.702;11.364;2022-12-24T10:45:40;2.80;;;1.48;;
53598;SDS011;39485;45.702;11.364;2022-12-24T10:48:10;2.70;;;2.50;;
53598;SDS011;39485;45.702;11.364;2022-12-24T10:51:18;3.20;;;2.95;;
53598;SDS011;39485;45.702;11.364;2022-12-24T10:53:55;5.88;;;2.70;;
53598;SDS011;39485;45.702;11.364;2022-12-24T10:56:26;1.95;;;1.85;;
53598;SDS011;39485;45.702;11.364;2022-12-24T10:58:56;4.05;;;2.55;;
53598;SDS011;39485;45.702;11.364;2022-12-24T11:01:56;2.22;;;2.03;;
53598;SDS011;39485;45.702;11.364;2022-12-24T11:04:18;1.25;;;0.93;;
53598;SDS011;39485;45.702;11.364;2022-12-24T11:09:33;1.20;;;1.20;;
53598;SDS011;39485;45.702;11.364;2022-12-24T11:12:05;3.83;;;2.00;;
53598;SDS011;39485;45.702;11.364;2022-12-24T11:14:42;1.20;;;1.17;;
53598;SDS011;39485;45.702;11.364;2022-12-24T11:17:17;1.27;;;1.17;;
53598;SDS011;39485;45.702;11.364;2022-12-24T11:19:46;0.80;;;0.80;;
53598;SDS011;39485;45.702;11.364;2022-12-24T11:22:17;1.75;;;1.33;;
53598;SDS011;39485;45.702;11.364;2022-12-24T11:24:53;3.75;;;1.67;;
53598;SDS011;39485;45.702;11.364;2022-12-24T11:27:28;1.40;;;1.33;;
53598;SDS011;39485;45.702;11.364;2022-12-24T11:30:19;3.33;;;1.67;;
53598;SDS011;39485;45.702;11.364;2022-12-24T11:35:28;1.65;;;1.33;;
53598;SDS011;39485;45.702;11.364;2022-12-24T11:40:24;1.38;;;1.30;;
53598;SDS011;39485;45.702;11.364;2022-12-24T11:42:53;0.75;;;0.75;;
53598;SDS011;39485;45.702;11.364;2022-12-24T11:45:25;1.98;;;1.88;;
53598;SDS011;39485;45.702;11.364;2022-12-24T11:47:58;0.80;;;0.80;;
53598;SDS011;39485;45.702;11.364;2022-12-24T11:50:50;2.67;;;2.33;;
53598;SDS011;39485;45.702;11.364;2022-12-24T11:53:39;0.75;;;0.75;;
53598;SDS011;39485;45.702;11.364;2022-12-24T11:59:32;1.27;;;1.17;;
53598;SDS011;39485;45.702;11.364;2022-12-24T12:04:51;1.85;;;1.70;;
53598;SDS011;39485;45.702;11.364;2022-12-24T12:07:25;2.78;;;2.13;;
53598;SDS011;39485;45.702;11.364;2022-12-24T12:09:56;1.77;;;1.67;;
53598;SDS011;39485;45.702;11.364;2022-12-24T12:13:02;0.93;;;0.93;;
53598;SDS011;39485;45.702;11.364;2022-12-24T12:15:39;1.65;;;1.55;;
53598;SDS011;39485;45.702;11.364;2022-12-24T12:18:31;0.45;;;0.45;;
53598;SDS011;39485;45.702;11.364;2022-12-24T12:21:04;7.13;;;1.73;;
53598;SDS011;39485;45.702;11.364;2022-12-24T12:24:00;1.23;;;1.15;;
53598;SDS011;39485;45.702;11.364;2022-12-24T12:26:36;0.93;;;0.85;;
53598;SDS011;39485;45.702;11.364;2022-12-24T12:32:13;1.35;;;1.13;;
53598;SDS011;39485;45.702;11.364;2022-12-24T12:37:41;0.77;;;0.77;;
53598;SDS011;39485;45.702;11.364;2022-12-24T12:40:13;1.10;;;1.08;;
53598;SDS011;39485;45.702;11.364;2022-12-24T12:42:42;6.68;;;1.88;;
53598;SDS011;39485;45.702;11.364;2022-12-24T12:46:19;1.35;;;1.23;;
53598;SDS011;39485;45.702;11.364;2022-12-24T13:00:09;1.70;;;1.40;;
53598;SDS011;39485;45.702;11.364;2022-12-24T14:32:40;0.95;;;0.95;;
53598;SDS011;39485;45.702;11.364;2022-12-24T14:35:49;0.40;;;0.40;;
53598;SDS011;39485;45.702;11.364;2022-12-24T14:59:32;0.93;;;0.93;;
53598;SDS011;39485;45.702;11.364;2022-12-24T15:02:33;0.45;;;0.45;;
53598;SDS011;39485;45.702;11.364;2022-12-24T15:10:28;0.45;;;0.45;;
53598;SDS011;39485;45.702;11.364;2022-12-24T15:13:00;1.35;;;1.15;;
53598;SDS011;39485;45.702;11.364;2022-12-24T15:15:29;1.30;;;1.20;;
53598;SDS011;39485;45.702;11.364;2022-12-24T15:17:56;1.83;;;1.73;;
53598;SDS011;39485;45.702;11.364;2022-12-24T15:20:24;1.50;;;1.40;;
53598;SDS011;39485;45.702;11.364;2022-12-24T15:22:53;2.72;;;2.53;;
53598;SDS011;39485;45.702;11.364;2022-12-24T15:25:27;2.50;;;2.30;;
53598;SDS011;39485;45.702;11.364;2022-12-24T15:27:55;1.65;;;1.58;;
53598;SDS011;39485;45.702;11.364;2022-12-24T15:30:23;7.32;;;3.28;;
53598;SDS011;39485;45.702;11.364;2022-12-24T15:32:55;13.23;;;4.75;;
53598;SDS011;39485;45.702;11.364;2022-12-24T15:35:29;3.85;;;3.38;;
53598;SDS011;39485;45.702;11.364;2022-12-24T15:37:58;2.15;;;2.05;;
53598;SDS011;39485;45.702;11.364;2022-12-24T15:40:25;2.92;;;2.72;;
53598;SDS011;39485;45.702;11.364;2022-12-24T15:42:52;3.30;;;2.90;;
53598;SDS011;39485;45.702;11.364;2022-12-24T15:45:28;2.25;;;2.05;;
53598;SDS011;39485;45.702;11.364;2022-12-24T15:47:58;2.10;;;1.88;;
53598;SDS011;39485;45.702;11.364;2022-12-24T15:53:03;4.93;;;4.63;;
53598;SDS011;39485;45.702;11.364;2022-12-24T15:55:38;6.53;;;4.22;;
53598;SDS011;39485;45.702;11.364;2022-12-24T16:01:04;5.72;;;4.88;;
53598;SDS011;39485;45.702;11.364;2022-12-24T16:03:30;6.32;;;4.55;;
53598;SDS011;39485;45.702;11.364;2022-12-24T16:06:07;2.42;;;2.28;;
53598;SDS011;39485;45.702;11.364;2022-12-24T16:08:56;24.92;;;4.05;;
53598;SDS011;39485;45.702;11.364;2022-12-24T16:11:25;6.25;;;4.15;;
53598;SDS011;39485;45.702;11.364;2022-12-24T16:14:02;1.90;;;1.80;;
53598;SDS011;39485;45.702;11.364;2022-12-24T16:16:40;5.93;;;3.35;;
53598;SDS011;39485;45.702;11.364;2022-12-24T16:19:26;4.23;;;3.37;;
53598;SDS011;39485;45.702;11.364;2022-12-24T16:21:56;5.07;;;3.90;;
53598;SDS011;39485;45.702;11.364;2022-12-24T16:24:25;3.33;;;3.03;;
53598;SDS011;39485;45.702;11.364;2022-12-24T16:26:53;5.30;;;2.70;;
53598;SDS011;39485;45.702;11.364;2022-12-24T16:29:19;8.47;;;3.40;;
53598;SDS011;39485;45.702;11.364;2022-12-24T16:31:53;2.10;;;2.00;;
53598;SDS011;39485;45.702;11.364;2022-12-24T16:34:25;6.65;;;3.92;;
53598;SDS011;39485;45.702;11.364;2022-12-24T16:36:53;5.40;;;4.77;;
53598;SDS011;39485;45.702;11.364;2022-12-24T16:39:21;2.92;;;2.70;;
53598;SDS011;39485;45.702;11.364;2022-12-24T16:41:59;4.80;;;3.43;;
53598;SDS011;39485;45.702;11.364;2022-12-24T16:44:44;4.68;;;4.05;;
53598;SDS011;39485;45.702;11.364;2022-12-24T18:10:03;2.05;;;1.95;;
53598;SDS011;39485;45.702;11.364;2022-12-24T18:15:39;3.37;;;3.17;;
53598;SDS011;39485;45.702;11.364;2022-12-24T18:18:05;6.23;;;4.10;;
53598;SDS011;39485;45.702;11.364;2022-12-24T18:20:33;5.10;;;4.60;;
53598;SDS011;39485;45.702;11.364;2022-12-24T18:23:00;3.10;;;2.90;;
53598;SDS011;39485;45.702;11.364;2022-12-24T18:25:26;5.03;;;3.77;;
53598;SDS011;39485;45.702;11.364;2022-12-24T18:27:52;4.17;;;3.50;;
53598;SDS011;39485;45.702;11.364;2022-12-24T18:30:32;2.73;;;2.23;;
53598;SDS011;39485;45.702;11.364;2022-12-24T18:33:00;3.43;;;3.20;;
53598;SDS011;39485;45.702;11.364;2022-12-24T18:35:26;2.17;;;1.87;;
53598;SDS011;39485;45.702;11.364;2022-12-24T18:37:57;3.40;;;3.20;;
53598;SDS011;39485;45.702;11.364;2022-12-24T18:40:50;2.13;;;2.03;;
53598;SDS011;39485;45.702;11.364;2022-12-24T18:43:20;3.07;;;2.77;;
53598;SDS011;39485;45.702;11.364;2022-12-24T18:45:56;2.57;;;2.37;;
53598;SDS011;39485;45.702;11.364;2022-12-24T18:48:22;3.77;;;2.43;;
53598;SDS011;39485;45.702;11.364;2022-12-24T18:50:54;2.53;;;2.33;;
53598;SDS011;39485;45.702;11.364;2022-12-24T18:53:22;10.57;;;2.85;;
53598;SDS011;39485;45.702;11.364;2022-12-24T18:55:48;4.60;;;3.43;;
53598;SDS011;39485;45.702;11.364;2022-12-24T18:58:14;4.43;;;3.57;;
53598;SDS011;39485;45.702;11.364;2022-12-24T19:00:40;3.43;;;3.23;;
53598;SDS011;39485;45.702;11.364;2022-12-24T19:03:08;4.87;;;3.47;;
53598;SDS011;39485;45.702;11.364;2022-12-24T19:05:34;3.87;;;3.57;;
53598;SDS011;39485;45.702;11.364;2022-12-24T19:08:00;2.10;;;1.90;;
53598;SDS011;39485;45.702;11.364;2022-12-24T19:10:26;3.17;;;2.97;;
53598;SDS011;39485;45.702;11.364;2022-12-24T19:12:51;4.67;;;4.13;;
53598;SDS011;39485;45.702;11.364;2022-12-24T19:15:17;3.33;;;3.03;;
53598;SDS011;39485;45.702;11.364;2022-12-24T19:17:43;3.03;;;2.83;;
53598;SDS011;39485;45.702;11.364;2022-12-24T19:20:09;4.83;;;4.53;;
53598;SDS011;39485;45.702;11.364;2022-12-24T19:22:35;5.43;;;3.63;;
53598;SDS011;39485;45.702;11.364;2022-12-24T19:25:00;1.73;;;1.67;;
53598;SDS011;39485;45.702;11.364;2022-12-24T19:27:26;5.03;;;3.93;;
53598;SDS011;39485;45.702;11.364;2022-12-24T19:29:52;5.40;;;4.17;;
53598;SDS011;39485;45.702;11.364;2022-12-24T19:32:18;3.80;;;3.40;;